sensor_id;sensor_type;location;lat;lon;timestamp;temperature;humidity
27368;DHT22;14839;48.106;11.618;2023-06-14T04:02:34;10.50;92.70
27368;DHT22;14839;48.106;11.618;2023-06-14T04:05:00;10.60;92.70
27368;DHT22;14839;48.106;11.618;2023-06-14T04:07:25;10.60;92.30
27368;DHT22;14839;48.106;11.618;2023-06-14T04:09:54;10.70;92.20
27368;DHT22;14839;48.106;11.618;2023-06-14T04:12:19;10.70;92.10
27368;DHT22;14839;48.106;11.618;2023-06-14T04:14:46;10.70;92.20
27368;DHT22;14839;48.106;11.618;2023-06-14T04:17:11;10.70;91.30
27368;DHT22;14839;48.106;11.618;2023-06-14T04:19:37;10.80;91.40
27368;DHT22;14839;48.106;11.618;2023-06-14T04:22:03;10.90;90.90
27368;DHT22;14839;48.106;11.618;2023-06-14T04:24:28;10.90;91.00
27368;DHT22;14839;48.106;11.618;2023-06-14T04:27:00;11.00;91.00
27368;DHT22;14839;48.106;11.618;2023-06-14T04:29:29;11.10;90.60
27368;DHT22;14839;48.106;11.618;2023-06-14T04:31:56;11.20;91.10
27368;DHT22;14839;48.106;11.618;2023-06-14T04:34:26;11.30;90.70
27368;DHT22;14839;48.106;11.618;2023-06-14T04:36:55;11.50;89.80
27368;DHT22;14839;48.106;11.618;2023-06-14T04:39:22;11.70;88.00
27368;DHT22;14839;48.106;11.618;2023-06-14T04:41:48;11.90;86.80
27368;DHT22;14839;48.106;11.618;2023-06-14T04:44:17;12.60;86.60
27368;DHT22;14839;48.106;11.618;2023-06-14T04:46:43;14.20;80.80
27368;DHT22;14839;48.106;11.618;2023-06-14T04:49:15;16.00;73.40
27368;DHT22;14839;48.106;11.618;2023-06-14T04:51:42;17.90;67.40
27368;DHT22;14839;48.106;11.618;2023-06-14T04:54:08;19.30;63.50
27368;DHT22;14839;48.106;11.618;2023-06-14T04:56:39;20.60;58.40
27368;DHT22;14839;48.106;11.618;2023-06-14T04:59:05;21.70;54.80
27368;DHT22;14839;48.106;11.618;2023-06-14T05:01:31;22.70;52.30
27368;DHT22;14839;48.106;11.618;2023-06-14T05:03:59;23.00;50.70
27368;DHT22;14839;48.106;11.618;2023-06-14T05:06:25;23.20;50.80
27368;DHT22;14839;48.106;11.618;2023-06-14T05:08:54;24.10;48.90
27368;DHT22;14839;48.106;11.618;2023-06-14T05:11:20;25.00;46.50
27368;DHT22;14839;48.106;11.618;2023-06-14T05:13:45;25.50;44.90
27368;DHT22;14839;48.106;11.618;2023-06-14T05:16:12;25.90;44.00
27368;DHT22;14839;48.106;11.618;2023-06-14T05:18:38;25.50;45.60
27368;DHT22;14839;48.106;11.618;2023-06-14T05:21:05;26.30;43.10
27368;DHT22;14839;48.106;11.618;2023-06-14T05:23:31;26.20;44.20
27368;DHT22;14839;48.106;11.618;2023-06-14T05:25:56;26.40;44.00
27368;DHT22;14839;48.106;11.618;2023-06-14T05:28:23;26.90;42.50
27368;DHT22;14839;48.106;11.618;2023-06-14T05:30:48;27.00;41.40
27368;DHT22;14839;48.106;11.618;2023-06-14T05:33:14;27.30;41.40
27368;DHT22;14839;48.106;11.618;2023-06-14T05:35:39;27.20;39.70
27368;DHT22;14839;48.106;11.618;2023-06-14T05:38:05;25.90;40.80
27368;DHT22;14839;48.106;11.618;2023-06-14T05:40:33;25.10;45.10
27368;DHT22;14839;48.106;11.618;2023-06-14T05:42:58;25.70;43.00
27368;DHT22;14839;48.106;11.618;2023-06-14T05:45:24;25.80;42.40
27368;DHT22;14839;48.106;11.618;2023-06-14T05:47:50;25.90;43.10
27368;DHT22;14839;48.106;11.618;2023-06-14T05:50:15;26.10;42.50
27368;DHT22;14839;48.106;11.618;2023-06-14T05:52:41;26.00;42.00
27368;DHT22;14839;48.106;11.618;2023-06-14T05:55:07;25.40;42.70
27368;DHT22;14839;48.106;11.618;2023-06-14T05:57:33;25.10;44.50
27368;DHT22;14839;48.106;11.618;2023-06-14T05:59:58;25.90;42.40
27368;DHT22;14839;48.106;11.618;2023-06-14T06:02:24;26.00;43.90
27368;DHT22;14839;48.106;11.618;2023-06-14T06:04:50;27.30;41.40
27368;DHT22;14839;48.106;11.618;2023-06-14T06:07:15;27.60;38.30
27368;DHT22;14839;48.106;11.618;2023-06-14T06:09:41;25.80;42.40
27368;DHT22;14839;48.106;11.618;2023-06-14T06:12:07;25.60;43.70
27368;DHT22;14839;48.106;11.618;2023-06-14T06:14:33;26.90;43.10
27368;DHT22;14839;48.106;11.618;2023-06-14T06:16:58;27.30;40.30
27368;DHT22;14839;48.106;11.618;2023-06-14T06:19:24;25.80;43.00
27368;DHT22;14839;48.106;11.618;2023-06-14T06:21:50;25.40;43.10
27368;DHT22;14839;48.106;11.618;2023-06-14T06:24:16;24.30;45.10
27368;DHT22;14839;48.106;11.618;2023-06-14T06:26:42;24.40;45.90
27368;DHT22;14839;48.106;11.618;2023-06-14T06:29:07;24.60;46.40
27368;DHT22;14839;48.106;11.618;2023-06-14T06:31:33;25.40;46.20
27368;DHT22;14839;48.106;11.618;2023-06-14T06:33:59;26.20;43.90
27368;DHT22;14839;48.106;11.618;2023-06-14T06:36:24;27.10;43.90
27368;DHT22;14839;48.106;11.618;2023-06-14T06:38:50;28.20;40.20
27368;DHT22;14839;48.106;11.618;2023-06-14T06:41:16;29.10;38.40
27368;DHT22;14839;48.106;11.618;2023-06-14T06:43:41;28.40;39.90
27368;DHT22;14839;48.106;11.618;2023-06-14T06:46:07;28.20;39.00
27368;DHT22;14839;48.106;11.618;2023-06-14T06:48:32;27.70;39.60
27368;DHT22;14839;48.106;11.618;2023-06-14T06:50:58;28.60;39.00
27368;DHT22;14839;48.106;11.618;2023-06-14T06:53:23;28.10;39.10
27368;DHT22;14839;48.106;11.618;2023-06-14T06:55:49;28.00;40.60
27368;DHT22;14839;48.106;11.618;2023-06-14T06:58:14;28.10;40.50
27368;DHT22;14839;48.106;11.618;2023-06-14T07:00:40;27.50;40.60
27368;DHT22;14839;48.106;11.618;2023-06-14T07:03:06;26.90;42.50
27368;DHT22;14839;48.106;11.618;2023-06-14T07:05:32;27.20;41.70
27368;DHT22;14839;48.106;11.618;2023-06-14T07:07:58;26.60;43.10
27368;DHT22;14839;48.106;11.618;2023-06-14T07:10:23;27.10;43.70
27368;DHT22;14839;48.106;11.618;2023-06-14T07:12:50;27.40;43.00
27368;DHT22;14839;48.106;11.618;2023-06-14T07:15:15;28.20;43.30
27368;DHT22;14839;48.106;11.618;2023-06-14T07:17:41;27.90;40.20
27368;DHT22;14839;48.106;11.618;2023-06-14T07:20:08;27.80;43.70
27368;DHT22;14839;48.106;11.618;2023-06-14T07:22:42;28.10;42.40
27368;DHT22;14839;48.106;11.618;2023-06-14T07:25:09;28.20;42.80
27368;DHT22;14839;48.106;11.618;2023-06-14T07:27:37;26.90;41.40
27368;DHT22;14839;48.106;11.618;2023-06-14T07:30:03;26.30;43.00
27368;DHT22;14839;48.106;11.618;2023-06-14T07:32:29;25.60;42.70
27368;DHT22;14839;48.106;11.618;2023-06-14T07:34:55;24.90;46.80
27368;DHT22;14839;48.106;11.618;2023-06-14T07:37:20;25.90;45.90
27368;DHT22;14839;48.106;11.618;2023-06-14T07:39:46;25.40;44.60
27368;DHT22;14839;48.106;11.618;2023-06-14T07:42:11;25.80;43.60
27368;DHT22;14839;48.106;11.618;2023-06-14T07:44:37;25.90;44.00
27368;DHT22;14839;48.106;11.618;2023-06-14T07:47:02;25.30;43.10
27368;DHT22;14839;48.106;11.618;2023-06-14T07:49:28;25.80;44.80
27368;DHT22;14839;48.106;11.618;2023-06-14T07:51:53;25.70;43.70
27368;DHT22;14839;48.106;11.618;2023-06-14T07:54:20;25.90;42.20
27368;DHT22;14839;48.106;11.618;2023-06-14T07:56:50;26.20;43.30
27368;DHT22;14839;48.106;11.618;2023-06-14T07:59:16;25.90;42.10
27368;DHT22;14839;48.106;11.618;2023-06-14T08:01:41;25.90;41.50
27368;DHT22;14839;48.106;11.618;2023-06-14T08:04:12;24.80;40.90
27368;DHT22;14839;48.106;11.618;2023-06-14T08:06:38;24.70;42.00
27368;DHT22;14839;48.106;11.618;2023-06-14T08:09:04;24.90;44.90
27368;DHT22;14839;48.106;11.618;2023-06-14T08:11:30;25.10;40.00
27368;DHT22;14839;48.106;11.618;2023-06-14T08:13:56;24.90;40.80
27368;DHT22;14839;48.106;11.618;2023-06-14T08:16:22;25.10;41.10
27368;DHT22;14839;48.106;11.618;2023-06-14T08:18:48;24.50;39.40
27368;DHT22;14839;48.106;11.618;2023-06-14T08:21:14;24.30;38.60
27368;DHT22;14839;48.106;11.618;2023-06-14T08:23:40;24.90;39.10
27368;DHT22;14839;48.106;11.618;2023-06-14T08:26:08;25.80;37.70
27368;DHT22;14839;48.106;11.618;2023-06-14T08:28:34;25.40;37.10
27368;DHT22;14839;48.106;11.618;2023-06-14T08:30:59;24.80;35.70
27368;DHT22;14839;48.106;11.618;2023-06-14T08:33:25;24.50;38.10
27368;DHT22;14839;48.106;11.618;2023-06-14T08:35:51;24.60;38.40
27368;DHT22;14839;48.106;11.618;2023-06-14T08:38:16;25.00;39.40
27368;DHT22;14839;48.106;11.618;2023-06-14T08:40:42;24.60;37.50
27368;DHT22;14839;48.106;11.618;2023-06-14T08:43:08;24.30;38.30
27368;DHT22;14839;48.106;11.618;2023-06-14T08:45:33;24.00;38.40
27368;DHT22;14839;48.106;11.618;2023-06-14T08:47:59;24.40;43.40
27368;DHT22;14839;48.106;11.618;2023-06-14T08:50:26;25.20;38.40
27368;DHT22;14839;48.106;11.618;2023-06-14T08:52:56;25.20;38.00
27368;DHT22;14839;48.106;11.618;2023-06-14T08:55:23;25.80;38.70
27368;DHT22;14839;48.106;11.618;2023-06-14T08:57:54;26.30;36.20
27368;DHT22;14839;48.106;11.618;2023-06-14T09:00:20;25.90;36.90
27368;DHT22;14839;48.106;11.618;2023-06-14T09:02:46;26.10;35.60
27368;DHT22;14839;48.106;11.618;2023-06-14T09:05:12;25.90;37.10
27368;DHT22;14839;48.106;11.618;2023-06-14T09:07:40;25.40;38.30
27368;DHT22;14839;48.106;11.618;2023-06-14T09:10:09;25.70;37.10
27368;DHT22;14839;48.106;11.618;2023-06-14T09:12:36;25.20;40.50
27368;DHT22;14839;48.106;11.618;2023-06-14T09:15:03;25.20;36.30
27368;DHT22;14839;48.106;11.618;2023-06-14T09:17:32;25.30;39.60
27368;DHT22;14839;48.106;11.618;2023-06-14T09:19:59;25.60;37.10
27368;DHT22;14839;48.106;11.618;2023-06-14T09:22:24;25.70;37.70
27368;DHT22;14839;48.106;11.618;2023-06-14T09:24:50;26.00;36.20
27368;DHT22;14839;48.106;11.618;2023-06-14T09:27:16;25.90;36.30
27368;DHT22;14839;48.106;11.618;2023-06-14T09:29:41;26.60;37.80
27368;DHT22;14839;48.106;11.618;2023-06-14T09:32:07;26.40;36.00
27368;DHT22;14839;48.106;11.618;2023-06-14T09:34:34;25.70;36.20
27368;DHT22;14839;48.106;11.618;2023-06-14T09:37:00;24.90;38.30
27368;DHT22;14839;48.106;11.618;2023-06-14T09:39:26;25.40;39.60
27368;DHT22;14839;48.106;11.618;2023-06-14T09:41:52;26.30;39.10
27368;DHT22;14839;48.106;11.618;2023-06-14T09:44:18;26.20;38.00
27368;DHT22;14839;48.106;11.618;2023-06-14T09:46:45;25.60;38.40
27368;DHT22;14839;48.106;11.618;2023-06-14T09:49:11;25.30;39.30
27368;DHT22;14839;48.106;11.618;2023-06-14T09:51:43;25.30;40.60
27368;DHT22;14839;48.106;11.618;2023-06-14T09:54:15;25.30;39.30
27368;DHT22;14839;48.106;11.618;2023-06-14T09:56:45;25.20;40.30
27368;DHT22;14839;48.106;11.618;2023-06-14T09:59:12;24.60;40.50
27368;DHT22;14839;48.106;11.618;2023-06-14T10:01:42;24.00;42.70
27368;DHT22;14839;48.106;11.618;2023-06-14T10:04:09;23.80;41.40
27368;DHT22;14839;48.106;11.618;2023-06-14T10:06:37;23.60;41.20
27368;DHT22;14839;48.106;11.618;2023-06-14T10:09:04;23.00;42.70
27368;DHT22;14839;48.106;11.618;2023-06-14T10:11:33;22.40;43.90
27368;DHT22;14839;48.106;11.618;2023-06-14T10:14:02;21.90;44.50
27368;DHT22;14839;48.106;11.618;2023-06-14T10:16:34;21.90;45.40
27368;DHT22;14839;48.106;11.618;2023-06-14T10:22:06;21.80;46.40
27368;DHT22;14839;48.106;11.618;2023-06-14T10:24:40;22.20;45.20
27368;DHT22;14839;48.106;11.618;2023-06-14T10:27:07;21.90;45.20
27368;DHT22;14839;48.106;11.618;2023-06-14T10:32:23;21.20;48.30
27368;DHT22;14839;48.106;11.618;2023-06-14T10:35:06;21.30;48.80
27368;DHT22;14839;48.106;11.618;2023-06-14T10:37:34;21.40;46.50
27368;DHT22;14839;48.106;11.618;2023-06-14T10:40:01;21.40;46.20
27368;DHT22;14839;48.106;11.618;2023-06-14T10:42:36;21.40;46.10
27368;DHT22;14839;48.106;11.618;2023-06-14T10:45:01;21.70;45.80
27368;DHT22;14839;48.106;11.618;2023-06-14T10:47:34;22.60;48.20
27368;DHT22;14839;48.106;11.618;2023-06-14T10:50:06;23.20;44.50
27368;DHT22;14839;48.106;11.618;2023-06-14T10:52:41;23.40;43.90
27368;DHT22;14839;48.106;11.618;2023-06-14T10:55:08;23.90;44.50
27368;DHT22;14839;48.106;11.618;2023-06-14T11:00:12;24.60;42.50
27368;DHT22;14839;48.106;11.618;2023-06-14T11:05:04;25.60;40.30
27368;DHT22;14839;48.106;11.618;2023-06-14T11:07:48;25.60;39.70
27368;DHT22;14839;48.106;11.618;2023-06-14T11:10:38;24.70;42.50
27368;DHT22;14839;48.106;11.618;2023-06-14T11:13:04;24.30;43.60
27368;DHT22;14839;48.106;11.618;2023-06-14T11:15:36;24.50;44.00
27368;DHT22;14839;48.106;11.618;2023-06-14T11:18:04;24.00;43.70
27368;DHT22;14839;48.106;11.618;2023-06-14T11:20:32;23.70;44.00
27368;DHT22;14839;48.106;11.618;2023-06-14T11:22:57;23.30;44.20
27368;DHT22;14839;48.106;11.618;2023-06-14T11:25:24;23.50;45.10
27368;DHT22;14839;48.106;11.618;2023-06-14T11:27:50;23.10;45.10
27368;DHT22;14839;48.106;11.618;2023-06-14T11:30:16;23.30;46.40
27368;DHT22;14839;48.106;11.618;2023-06-14T11:32:45;23.90;44.50
27368;DHT22;14839;48.106;11.618;2023-06-14T11:35:11;24.00;42.80
27368;DHT22;14839;48.106;11.618;2023-06-14T11:37:37;23.50;43.90
27368;DHT22;14839;48.106;11.618;2023-06-14T11:40:04;23.90;43.70
27368;DHT22;14839;48.106;11.618;2023-06-14T11:42:35;24.20;41.70
27368;DHT22;14839;48.106;11.618;2023-06-14T11:45:02;24.40;42.50
27368;DHT22;14839;48.106;11.618;2023-06-14T11:47:46;24.20;42.20
27368;DHT22;14839;48.106;11.618;2023-06-14T11:50:12;23.80;42.40
27368;DHT22;14839;48.106;11.618;2023-06-14T11:52:37;23.20;43.30
27368;DHT22;14839;48.106;11.618;2023-06-14T11:55:03;23.30;43.10
27368;DHT22;14839;48.106;11.618;2023-06-14T11:57:34;23.70;42.50
27368;DHT22;14839;48.106;11.618;2023-06-14T12:00:03;24.00;42.00
27368;DHT22;14839;48.106;11.618;2023-06-14T12:02:31;24.50;43.70
27368;DHT22;14839;48.106;11.618;2023-06-14T12:05:04;24.00;40.50
27368;DHT22;14839;48.106;11.618;2023-06-14T12:07:32;23.30;42.50
27368;DHT22;14839;48.106;11.618;2023-06-14T12:12:24;23.00;44.20
27368;DHT22;14839;48.106;11.618;2023-06-14T12:14:53;23.40;45.10
27368;DHT22;14839;48.106;11.618;2023-06-14T12:17:19;23.80;43.30
27368;DHT22;14839;48.106;11.618;2023-06-14T12:19:46;23.60;41.80
27368;DHT22;14839;48.106;11.618;2023-06-14T12:22:13;23.30;42.70
27368;DHT22;14839;48.106;11.618;2023-06-14T12:24:39;23.00;44.30
27368;DHT22;14839;48.106;11.618;2023-06-14T12:27:08;22.90;44.20
27368;DHT22;14839;48.106;11.618;2023-06-14T12:29:33;22.50;44.50
27368;DHT22;14839;48.106;11.618;2023-06-14T12:31:59;22.90;45.50
27368;DHT22;14839;48.106;11.618;2023-06-14T12:34:25;23.40;43.70
27368;DHT22;14839;48.106;11.618;2023-06-14T12:36:55;23.90;44.20
27368;DHT22;14839;48.106;11.618;2023-06-14T12:39:21;24.10;42.80
27368;DHT22;14839;48.106;11.618;2023-06-14T12:41:47;24.30;40.50
27368;DHT22;14839;48.106;11.618;2023-06-14T12:44:14;24.30;39.10
27368;DHT22;14839;48.106;11.618;2023-06-14T12:46:40;24.10;41.10
27368;DHT22;14839;48.106;11.618;2023-06-14T12:49:08;24.00;40.50
27368;DHT22;14839;48.106;11.618;2023-06-14T12:51:34;24.00;40.60
27368;DHT22;14839;48.106;11.618;2023-06-14T12:54:00;23.90;40.80
27368;DHT22;14839;48.106;11.618;2023-06-14T12:56:25;24.10;41.50
27368;DHT22;14839;48.106;11.618;2023-06-14T12:58:51;24.30;44.00
27368;DHT22;14839;48.106;11.618;2023-06-14T13:01:17;24.70;42.50
27368;DHT22;14839;48.106;11.618;2023-06-14T13:03:43;24.80;40.60
27368;DHT22;14839;48.106;11.618;2023-06-14T13:06:09;24.80;39.60
27368;DHT22;14839;48.106;11.618;2023-06-14T13:08:34;24.20;40.20
27368;DHT22;14839;48.106;11.618;2023-06-14T13:11:00;24.20;41.40
27368;DHT22;14839;48.106;11.618;2023-06-14T13:13:26;24.10;40.80
27368;DHT22;14839;48.106;11.618;2023-06-14T13:15:51;23.90;39.90
27368;DHT22;14839;48.106;11.618;2023-06-14T13:18:17;23.80;40.80
27368;DHT22;14839;48.106;11.618;2023-06-14T13:20:43;23.70;40.20
27368;DHT22;14839;48.106;11.618;2023-06-14T13:23:09;23.80;39.90
27368;DHT22;14839;48.106;11.618;2023-06-14T13:25:36;24.00;42.40
27368;DHT22;14839;48.106;11.618;2023-06-14T13:28:02;24.20;42.80
27368;DHT22;14839;48.106;11.618;2023-06-14T13:30:28;24.40;41.10
27368;DHT22;14839;48.106;11.618;2023-06-14T13:32:54;24.20;40.00
27368;DHT22;14839;48.106;11.618;2023-06-14T13:35:21;24.20;40.90
27368;DHT22;14839;48.106;11.618;2023-06-14T13:37:47;24.00;40.00
27368;DHT22;14839;48.106;11.618;2023-06-14T13:40:13;24.00;40.60
27368;DHT22;14839;48.106;11.618;2023-06-14T13:42:38;24.30;42.70
27368;DHT22;14839;48.106;11.618;2023-06-14T13:45:05;24.50;40.50
27368;DHT22;14839;48.106;11.618;2023-06-14T13:47:32;24.70;39.60
27368;DHT22;14839;48.106;11.618;2023-06-14T13:49:58;24.50;39.00
27368;DHT22;14839;48.106;11.618;2023-06-14T13:52:24;24.30;39.40
27368;DHT22;14839;48.106;11.618;2023-06-14T13:54:49;24.30;40.20
27368;DHT22;14839;48.106;11.618;2023-06-14T13:57:16;24.30;39.10
27368;DHT22;14839;48.106;11.618;2023-06-14T13:59:41;24.40;39.70
27368;DHT22;14839;48.106;11.618;2023-06-14T14:02:09;24.40;38.60
27368;DHT22;14839;48.106;11.618;2023-06-14T14:04:34;24.40;40.20
27368;DHT22;14839;48.106;11.618;2023-06-14T14:07:01;24.60;39.60
27368;DHT22;14839;48.106;11.618;2023-06-14T14:09:27;24.70;39.10
27368;DHT22;14839;48.106;11.618;2023-06-14T14:11:53;24.60;37.40
27368;DHT22;14839;48.106;11.618;2023-06-14T14:14:18;24.30;38.30
27368;DHT22;14839;48.106;11.618;2023-06-14T14:16:44;24.20;38.40
27368;DHT22;14839;48.106;11.618;2023-06-14T14:19:09;24.30;39.90
27368;DHT22;14839;48.106;11.618;2023-06-14T14:21:35;24.30;38.70
27368;DHT22;14839;48.106;11.618;2023-06-14T14:24:01;24.40;38.70
27368;DHT22;14839;48.106;11.618;2023-06-14T14:26:26;24.10;38.30
27368;DHT22;14839;48.106;11.618;2023-06-14T14:28:52;24.20;38.60
27368;DHT22;14839;48.106;11.618;2023-06-14T14:31:18;24.10;38.80
27368;DHT22;14839;48.106;11.618;2023-06-14T14:33:44;24.30;39.40
27368;DHT22;14839;48.106;11.618;2023-06-14T14:36:09;24.50;38.70
27368;DHT22;14839;48.106;11.618;2023-06-14T14:38:35;24.40;38.10
27368;DHT22;14839;48.106;11.618;2023-06-14T14:41:01;24.00;38.70
27368;DHT22;14839;48.106;11.618;2023-06-14T14:43:26;24.00;40.00
27368;DHT22;14839;48.106;11.618;2023-06-14T14:45:52;24.10;40.00
27368;DHT22;14839;48.106;11.618;2023-06-14T14:48:18;24.10;38.70
27368;DHT22;14839;48.106;11.618;2023-06-14T14:50:43;24.00;38.70
27368;DHT22;14839;48.106;11.618;2023-06-14T14:53:09;23.90;40.50
27368;DHT22;14839;48.106;11.618;2023-06-14T14:55:34;24.00;40.80
27368;DHT22;14839;48.106;11.618;2023-06-14T14:58:02;23.90;40.30
27368;DHT22;14839;48.106;11.618;2023-06-14T15:00:28;23.80;40.80
27368;DHT22;14839;48.106;11.618;2023-06-14T15:02:54;23.60;41.40
27368;DHT22;14839;48.106;11.618;2023-06-14T15:05:20;23.60;42.50
27368;DHT22;14839;48.106;11.618;2023-06-14T15:07:46;23.60;42.40
27368;DHT22;14839;48.106;11.618;2023-06-14T15:10:11;23.70;42.40
27368;DHT22;14839;48.106;11.618;2023-06-14T15:12:37;23.60;41.50
27368;DHT22;14839;48.106;11.618;2023-06-14T15:15:03;23.50;42.80
27368;DHT22;14839;48.106;11.618;2023-06-14T15:17:29;23.40;41.70
27368;DHT22;14839;48.106;11.618;2023-06-14T15:19:55;23.20;41.20
27368;DHT22;14839;48.106;11.618;2023-06-14T15:22:20;23.30;42.10
27368;DHT22;14839;48.106;11.618;2023-06-14T15:24:46;23.30;41.70
27368;DHT22;14839;48.106;11.618;2023-06-14T15:27:12;23.30;42.80
27368;DHT22;14839;48.106;11.618;2023-06-14T15:29:41;23.40;44.20
27368;DHT22;14839;48.106;11.618;2023-06-14T15:32:07;23.40;42.70
27368;DHT22;14839;48.106;11.618;2023-06-14T15:34:33;23.40;40.60
27368;DHT22;14839;48.106;11.618;2023-06-14T15:36:59;23.20;40.60
27368;DHT22;14839;48.106;11.618;2023-06-14T15:39:25;23.30;41.20
27368;DHT22;14839;48.106;11.618;2023-06-14T15:41:52;23.30;41.50
27368;DHT22;14839;48.106;11.618;2023-06-14T15:44:17;23.40;42.00
27368;DHT22;14839;48.106;11.618;2023-06-14T15:46:43;23.50;43.30
27368;DHT22;14839;48.106;11.618;2023-06-14T15:49:09;23.60;42.50
27368;DHT22;14839;48.106;11.618;2023-06-14T15:51:36;23.60;42.70
27368;DHT22;14839;48.106;11.618;2023-06-14T15:54:01;23.60;43.40
27368;DHT22;14839;48.106;11.618;2023-06-14T15:56:27;23.50;44.30
27368;DHT22;14839;48.106;11.618;2023-06-14T15:58:52;23.40;42.70
27368;DHT22;14839;48.106;11.618;2023-06-14T16:01:18;23.30;43.00
27368;DHT22;14839;48.106;11.618;2023-06-14T16:03:43;23.30;46.40
27368;DHT22;14839;48.106;11.618;2023-06-14T16:06:09;23.40;47.10
27368;DHT22;14839;48.106;11.618;2023-06-14T16:08:35;23.40;46.40
27368;DHT22;14839;48.106;11.618;2023-06-14T16:11:00;23.40;44.90
27368;DHT22;14839;48.106;11.618;2023-06-14T16:13:26;23.30;45.60
27368;DHT22;14839;48.106;11.618;2023-06-14T16:15:51;23.20;46.10
27368;DHT22;14839;48.106;11.618;2023-06-14T16:18:17;23.10;47.30
27368;DHT22;14839;48.106;11.618;2023-06-14T16:20:42;23.00;45.90
27368;DHT22;14839;48.106;11.618;2023-06-14T16:23:08;22.90;45.10
27368;DHT22;14839;48.106;11.618;2023-06-14T16:25:34;22.90;45.10
27368;DHT22;14839;48.106;11.618;2023-06-14T16:27:59;23.00;46.70
27368;DHT22;14839;48.106;11.618;2023-06-14T16:30:25;22.90;46.70
27368;DHT22;14839;48.106;11.618;2023-06-14T16:32:51;22.80;46.40
27368;DHT22;14839;48.106;11.618;2023-06-14T16:35:17;22.70;46.70
27368;DHT22;14839;48.106;11.618;2023-06-14T16:37:42;22.80;48.20
27368;DHT22;14839;48.106;11.618;2023-06-14T16:40:08;22.80;45.60
27368;DHT22;14839;48.106;11.618;2023-06-14T16:42:34;22.60;46.10
27368;DHT22;14839;48.106;11.618;2023-06-14T16:44:59;22.40;45.10
27368;DHT22;14839;48.106;11.618;2023-06-14T16:47:26;22.30;45.80
27368;DHT22;14839;48.106;11.618;2023-06-14T16:49:52;22.20;45.90
27368;DHT22;14839;48.106;11.618;2023-06-14T16:52:17;22.10;47.00
27368;DHT22;14839;48.106;11.618;2023-06-14T16:54:43;22.30;48.20
27368;DHT22;14839;48.106;11.618;2023-06-14T16:57:08;22.30;47.10
27368;DHT22;14839;48.106;11.618;2023-06-14T16:59:34;22.40;49.00
27368;DHT22;14839;48.106;11.618;2023-06-14T17:02:05;22.40;48.60
27368;DHT22;14839;48.106;11.618;2023-06-14T17:04:31;22.50;48.60
27368;DHT22;14839;48.106;11.618;2023-06-14T17:06:57;22.50;48.80
27368;DHT22;14839;48.106;11.618;2023-06-14T17:09:23;22.50;46.70
27368;DHT22;14839;48.106;11.618;2023-06-14T17:11:48;22.50;48.90
27368;DHT22;14839;48.106;11.618;2023-06-14T17:14:14;22.50;46.50
27368;DHT22;14839;48.106;11.618;2023-06-14T17:16:40;22.40;49.20
27368;DHT22;14839;48.106;11.618;2023-06-14T17:19:06;22.30;47.70
27368;DHT22;14839;48.106;11.618;2023-06-14T17:21:32;22.20;48.20
27368;DHT22;14839;48.106;11.618;2023-06-14T17:23:58;22.20;47.60
27368;DHT22;14839;48.106;11.618;2023-06-14T17:26:25;22.10;48.30
27368;DHT22;14839;48.106;11.618;2023-06-14T17:28:51;22.20;48.60
27368;DHT22;14839;48.106;11.618;2023-06-14T17:31:17;22.10;49.80
27368;DHT22;14839;48.106;11.618;2023-06-14T17:33:43;22.10;52.20
27368;DHT22;14839;48.106;11.618;2023-06-14T17:36:09;22.10;51.30
27368;DHT22;14839;48.106;11.618;2023-06-14T17:38:34;22.00;51.00
27368;DHT22;14839;48.106;11.618;2023-06-14T17:41:02;21.90;50.50
27368;DHT22;14839;48.106;11.618;2023-06-14T17:43:29;21.90;51.30
27368;DHT22;14839;48.106;11.618;2023-06-14T17:45:55;21.80;51.40
27368;DHT22;14839;48.106;11.618;2023-06-14T17:48:20;21.70;51.00
27368;DHT22;14839;48.106;11.618;2023-06-14T17:50:47;21.70;52.00
27368;DHT22;14839;48.106;11.618;2023-06-14T17:53:13;21.60;51.40
27368;DHT22;14839;48.106;11.618;2023-06-14T17:55:38;21.60;52.60
27368;DHT22;14839;48.106;11.618;2023-06-14T17:58:05;21.50;52.70
27368;DHT22;14839;48.106;11.618;2023-06-14T18:00:30;21.50;52.60
27368;DHT22;14839;48.106;11.618;2023-06-14T18:02:56;21.40;52.40
27368;DHT22;14839;48.106;11.618;2023-06-14T18:05:24;21.30;52.70
27368;DHT22;14839;48.106;11.618;2023-06-14T18:07:51;21.20;53.90
27368;DHT22;14839;48.106;11.618;2023-06-14T18:10:17;21.20;54.10
27368;DHT22;14839;48.106;11.618;2023-06-14T18:12:44;21.20;53.80
27368;DHT22;14839;48.106;11.618;2023-06-14T18:15:09;21.20;54.70
27368;DHT22;14839;48.106;11.618;2023-06-14T18:17:35;21.10;54.20
27368;DHT22;14839;48.106;11.618;2023-06-14T18:20:01;21.10;55.40
27368;DHT22;14839;48.106;11.618;2023-06-14T18:22:27;21.00;55.00
27368;DHT22;14839;48.106;11.618;2023-06-14T18:24:53;21.00;54.80
27368;DHT22;14839;48.106;11.618;2023-06-14T18:27:19;20.90;55.00
27368;DHT22;14839;48.106;11.618;2023-06-14T18:29:44;20.70;55.40
27368;DHT22;14839;48.106;11.618;2023-06-14T18:32:12;20.60;55.80
27368;DHT22;14839;48.106;11.618;2023-06-14T18:34:38;20.60;56.00
27368;DHT22;14839;48.106;11.618;2023-06-14T18:37:04;20.50;56.70
27368;DHT22;14839;48.106;11.618;2023-06-14T18:39:31;20.50;57.20
27368;DHT22;14839;48.106;11.618;2023-06-14T18:41:57;20.50;55.70
27368;DHT22;14839;48.106;11.618;2023-06-14T18:44:24;20.40;56.40
27368;DHT22;14839;48.106;11.618;2023-06-14T18:46:50;20.30;57.90
27368;DHT22;14839;48.106;11.618;2023-06-14T18:49:16;20.20;58.10
27368;DHT22;14839;48.106;11.618;2023-06-14T18:51:41;20.20;57.60
27368;DHT22;14839;48.106;11.618;2023-06-14T18:54:07;20.10;58.20
27368;DHT22;14839;48.106;11.618;2023-06-14T18:56:33;20.10;58.90
27368;DHT22;14839;48.106;11.618;2023-06-14T18:59:00;19.90;59.10
27368;DHT22;14839;48.106;11.618;2023-06-14T19:01:28;19.90;60.80
27368;DHT22;14839;48.106;11.618;2023-06-14T19:03:54;19.90;59.70
27368;DHT22;14839;48.106;11.618;2023-06-14T19:06:20;19.80;60.40
27368;DHT22;14839;48.106;11.618;2023-06-14T19:08:48;19.70;60.10
27368;DHT22;14839;48.106;11.618;2023-06-14T19:11:13;19.60;61.30
27368;DHT22;14839;48.106;11.618;2023-06-14T19:13:39;19.50;61.40
27368;DHT22;14839;48.106;11.618;2023-06-14T19:16:06;19.30;61.10
27368;DHT22;14839;48.106;11.618;2023-06-14T19:18:31;19.20;62.30
27368;DHT22;14839;48.106;11.618;2023-06-14T19:20:57;19.20;62.80
27368;DHT22;14839;48.106;11.618;2023-06-14T19:23:23;19.10;63.40
27368;DHT22;14839;48.106;11.618;2023-06-14T19:25:50;19.00;63.40